createdAt,value
2022-07-31T00:03:53.147Z,25.20
2022-07-31T00:08:56.111Z,25.10
2022-07-31T00:13:59.059Z,25.10
2022-07-31T00:19:03.355Z,25.10
2022-07-31T00:24:06.844Z,24.60
2022-07-31T00:29:10.892Z,25.00
2022-07-31T00:34:20.222Z,24.90
2022-07-31T00:39:24.154Z,24.80
2022-07-31T00:44:27.098Z,24.70
2022-07-31T00:49:37.503Z,23.90
2022-07-31T00:54:41.469Z,24.30
2022-07-31T00:59:45.026Z,23.90
2022-07-31T01:04:49.426Z,24.10
2022-07-31T01:09:55.315Z,23.90
2022-07-31T01:15:02.940Z,24.00
2022-07-31T01:20:09.357Z,23.90
2022-07-31T01:25:18.146Z,24.10
2022-07-31T01:30:40.999Z,24.10
2022-07-31T01:35:50.260Z,23.70
2022-07-31T01:41:00.082Z,23.50
2022-07-31T01:46:05.828Z,23.60
2022-07-31T01:51:11.222Z,23.50
2022-07-31T01:56:17.878Z,23.20
2022-07-31T02:01:27.270Z,23.20
2022-07-31T02:06:31.731Z,23.30
2022-07-31T02:11:53.400Z,23.20
2022-07-31T02:16:59.508Z,23.00
2022-07-31T02:22:21.184Z,23.00
2022-07-31T02:27:56.200Z,23.20
2022-07-31T02:32:54.815Z,23.00
2022-07-31T02:37:59.190Z,23.00
2022-07-31T02:43:03.686Z,22.70
2022-07-31T02:48:11.853Z,22.80
2022-07-31T02:53:19.627Z,22.50
2022-07-31T02:58:23.588Z,22.20
2022-07-31T03:03:31.053Z,22.40
2022-07-31T03:08:33.935Z,22.40
2022-07-31T03:13:43.581Z,22.30
2022-07-31T03:18:48.841Z,22.00
2022-07-31T03:23:52.004Z,22.00
2022-07-31T03:29:00.422Z,21.80
2022-07-31T03:34:05.288Z,21.90
2022-07-31T03:39:08.296Z,22.10
2022-07-31T03:44:19.281Z,21.90
2022-07-31T03:49:24.876Z,21.90
2022-07-31T03:54:28.300Z,21.40
2022-07-31T03:59:50.943Z,21.60
2022-07-31T04:04:55.528Z,21.80
2022-07-31T04:09:58.460Z,21.70
2022-07-31T04:15:01.467Z,21.90
2022-07-31T04:20:06.825Z,21.70
2022-07-31T04:25:10.622Z,21.60
2022-07-31T04:30:29.868Z,21.30
2022-07-31T04:35:34.171Z,21.10
2022-07-31T04:40:37.054Z,21.20
2022-07-31T04:45:40.061Z,21.20
2022-07-31T04:50:45.149Z,21.30
2022-07-31T04:56:09.387Z,21.60
2022-07-31T05:01:12.347Z,21.30
2022-07-31T05:06:20.763Z,21.50
2022-07-31T05:11:23.673Z,21.70
2022-07-31T05:16:28.074Z,21.90
2022-07-31T05:21:32.700Z,22.00
2022-07-31T05:26:56.443Z,22.10
2022-07-31T05:32:00.994Z,21.80
2022-07-31T05:37:06.641Z,21.70
2022-07-31T05:42:12.358Z,21.90
2022-07-31T05:47:40.428Z,22.20
2022-07-31T05:52:46.562Z,22.40
2022-07-31T05:58:21.572Z,22.70
2022-07-31T06:03:28.066Z,22.70
2022-07-31T06:08:39.301Z,22.80
2022-07-31T06:13:43.274Z,22.90
2022-07-31T06:18:54.570Z,22.90
2022-07-31T06:23:58.863Z,23.00
2022-07-31T06:29:08.219Z,22.90
2022-07-31T06:34:11.131Z,23.10
2022-07-31T06:39:19.062Z,23.40
2022-07-31T06:44:41.343Z,23.60
2022-07-31T06:50:09.089Z,23.80
2022-07-31T06:55:16.239Z,24.10
2022-07-31T07:00:21.090Z,24.50
2022-07-31T07:05:26.936Z,24.80
2022-07-31T07:10:34.412Z,24.90
2022-07-31T07:16:13.058Z,25.10
2022-07-31T07:21:16.428Z,25.30
2022-07-31T07:26:21.063Z,25.40
2022-07-31T07:31:24.540Z,25.80
2022-07-31T07:36:27.710Z,26.30
2022-07-31T07:41:39.641Z,26.80
2022-07-31T07:46:42.862Z,27.00
2022-07-31T07:51:59.345Z,27.10
2022-07-31T07:57:17.569Z,27.20
2022-07-31T08:02:41.172Z,27.40
2022-07-31T08:07:46.195Z,27.90
2022-07-31T08:13:09.102Z,27.80
2022-07-31T08:18:50.410Z,27.80
2022-07-31T08:23:53.672Z,27.90
2022-07-31T08:28:58.097Z,27.90
2022-07-31T08:34:03.453Z,27.90
2022-07-31T08:39:07.609Z,27.80
2022-07-31T08:44:26.471Z,27.80
2022-07-31T08:49:40.650Z,27.80
2022-07-31T08:54:45.978Z,27.90
2022-07-31T08:59:52.396Z,28.20
2022-07-31T09:04:56.601Z,28.50
2022-07-31T09:09:59.484Z,28.70
2022-07-31T09:15:03.823Z,28.80
2022-07-31T09:20:19.642Z,29.00
2022-07-31T09:25:22.790Z,29.40
2022-07-31T09:30:27.493Z,29.60
2022-07-31T09:35:39.815Z,29.90
2022-07-31T09:40:55.154Z,29.90
2022-07-31T09:46:27.611Z,29.50
2022-07-31T09:51:39.636Z,29.90
2022-07-31T09:56:46.750Z,30.20
2022-07-31T10:01:51.334Z,30.40
2022-07-31T10:06:56.352Z,30.70
2022-07-31T10:12:01.925Z,30.70
2022-07-31T10:17:07.324Z,30.90
2022-07-31T10:22:44.846Z,31.00
2022-07-31T10:27:51.245Z,31.10
2022-07-31T10:32:55.684Z,31.10
2022-07-31T10:38:11.970Z,31.10
2022-07-31T10:43:38.022Z,30.80
2022-07-31T10:49:08.825Z,31.20
2022-07-31T10:54:43.162Z,31.50
2022-07-31T11:00:13.125Z,31.50
2022-07-31T11:06:02.107Z,30.60
2022-07-31T11:11:33.542Z,30.70
2022-07-31T11:16:55.739Z,30.70
2022-07-31T11:22:32.543Z,30.60
2022-07-31T11:27:36.168Z,30.50
2022-07-31T11:32:39.040Z,30.50
2022-07-31T11:37:56.819Z,30.80
2022-07-31T11:48:27.827Z,31.50
2022-07-31T11:53:32.608Z,31.20
2022-07-31T11:58:37.896Z,31.80
2022-07-31T12:03:42.553Z,32.00
2022-07-31T12:08:47.943Z,31.90
2022-07-31T12:13:51.586Z,32.00
2022-07-31T12:18:56.939Z,31.80
2022-07-31T12:24:01.679Z,32.10
2022-07-31T12:29:08.126Z,32.30
2022-07-31T12:34:11.113Z,32.00
2022-07-31T12:39:15.554Z,31.60
2022-07-31T12:44:21.542Z,31.90
2022-07-31T12:49:25.146Z,32.20
2022-07-31T12:54:31.331Z,32.10
2022-07-31T12:59:34.340Z,32.00
2022-07-31T13:04:37.228Z,31.90
2022-07-31T13:09:41.534Z,31.90
2022-07-31T13:14:44.388Z,32.20
2022-07-31T13:19:47.277Z,32.20
2022-07-31T13:24:51.560Z,32.30
2022-07-31T13:29:54.566Z,32.30
2022-07-31T13:35:19.446Z,32.30
2022-07-31T13:40:42.914Z,32.00
2022-07-31T13:45:46.238Z,32.30
2022-07-31T13:50:49.157Z,32.60
2022-07-31T13:55:54.224Z,32.50
2022-07-31T14:01:00.280Z,32.20
2022-07-31T14:06:07.135Z,32.00
2022-07-31T14:11:13.797Z,32.20
2022-07-31T14:16:18.198Z,32.30
2022-07-31T14:21:21.340Z,32.60
2022-07-31T14:26:25.544Z,32.60
2022-07-31T14:31:28.524Z,32.30
2022-07-31T14:36:31.503Z,32.60
2022-07-31T14:41:35.695Z,32.90
2022-07-31T14:46:38.666Z,33.10
2022-07-31T14:51:41.571Z,33.10
2022-07-31T14:57:00.770Z,32.60
2022-07-31T15:02:04.564Z,32.60
2022-07-31T15:07:33.612Z,32.80
2022-07-31T15:12:32.136Z,33.20
2022-07-31T15:17:35.046Z,33.20
2022-07-31T15:22:38.001Z,32.90
2022-07-31T15:27:42.504Z,33.20
2022-07-31T15:32:46.423Z,32.80
2022-07-31T15:37:50.516Z,33.10
2022-07-31T15:42:54.718Z,33.30
2022-07-31T15:47:57.694Z,33.20
2022-07-31T15:53:00.679Z,33.00
2022-07-31T15:58:05.481Z,33.40
2022-07-31T16:03:08.894Z,33.50
2022-07-31T16:08:32.496Z,33.50
2022-07-31T16:13:39.346Z,33.20
2022-07-31T16:18:42.326Z,33.00
2022-07-31T16:23:45.427Z,33.20
2022-07-31T16:28:53.734Z,33.40
2022-07-31T16:33:57.092Z,33.50
2022-07-31T16:39:19.537Z,33.40
2022-07-31T16:44:24.252Z,33.50
2022-07-31T16:49:35.924Z,33.90
2022-07-31T16:54:40.166Z,34.00
2022-07-31T16:59:56.568Z,33.90
2022-07-31T17:05:00.920Z,33.80
2022-07-31T17:10:03.842Z,33.80
2022-07-31T17:15:09.353Z,33.50
2022-07-31T17:20:13.016Z,33.50
2022-07-31T17:25:18.730Z,33.40
2022-07-31T17:30:22.949Z,33.30
2022-07-31T17:35:25.948Z,33.30
2022-07-31T17:40:42.898Z,33.70
2022-07-31T17:45:59.703Z,33.80
2022-07-31T17:51:11.420Z,34.00
2022-07-31T17:56:15.940Z,34.10
2022-07-31T18:01:21.605Z,34.10
2022-07-31T18:06:27.574Z,33.80
2022-07-31T18:11:30.451Z,34.00
2022-07-31T18:16:34.763Z,33.90
2022-07-31T18:21:37.698Z,33.70
2022-07-31T18:26:40.749Z,33.40
2022-07-31T18:31:45.172Z,33.20
2022-07-31T18:36:54.564Z,33.30
2022-07-31T18:41:57.817Z,33.30
2022-07-31T18:47:02.072Z,33.10
2022-07-31T18:52:05.744Z,33.00
2022-07-31T18:57:09.167Z,32.80
2022-07-31T19:02:13.530Z,32.60
2022-07-31T19:07:16.477Z,32.10
2022-07-31T19:12:19.335Z,32.10
2022-07-31T19:17:24.000Z,32.00
2022-07-31T19:22:29.254Z,32.00
2022-07-31T19:27:48.324Z,31.80
2022-07-31T19:32:54.583Z,31.90
2022-07-31T19:37:58.037Z,31.60
2022-07-31T19:43:00.994Z,31.60
2022-07-31T19:48:06.001Z,31.50
2022-07-31T19:53:08.850Z,31.40
2022-07-31T19:58:11.708Z,31.40
2022-07-31T20:03:16.056Z,31.00
2022-07-31T20:08:19.082Z,30.90
2022-07-31T20:13:22.037Z,30.80
2022-07-31T20:18:28.778Z,30.80
2022-07-31T20:23:34.121Z,30.70
2022-07-31T20:28:37.566Z,30.30
2022-07-31T20:33:44.254Z,30.30
2022-07-31T20:38:50.539Z,30.10
2022-07-31T20:43:53.438Z,29.90
2022-07-31T20:48:59.081Z,29.70
2022-07-31T20:54:02.067Z,29.40
2022-07-31T20:59:04.965Z,29.50
2022-07-31T21:04:09.766Z,29.40
2022-07-31T21:09:12.726Z,29.10
2022-07-31T21:14:15.769Z,29.00
2022-07-31T21:19:20.232Z,29.10
2022-07-31T21:24:25.156Z,29.10
2022-07-31T21:29:29.196Z,29.10
2022-07-31T21:34:34.102Z,28.80
2022-07-31T21:39:37.561Z,28.80
2022-07-31T21:44:40.799Z,28.70
2022-07-31T21:49:54.081Z,28.40
2022-07-31T21:55:03.787Z,28.00
2022-07-31T22:00:13.620Z,28.20
2022-07-31T22:05:36.257Z,28.00
2022-07-31T22:10:39.194Z,28.10
2022-07-31T22:15:58.630Z,28.10
2022-07-31T22:21:08.195Z,28.10
2022-07-31T22:26:11.476Z,27.40
2022-07-31T22:31:14.959Z,27.70
2022-07-31T22:36:19.941Z,27.70
2022-07-31T22:41:22.973Z,27.60
2022-07-31T22:46:26.903Z,27.60
2022-07-31T22:51:34.419Z,27.00
2022-07-31T22:56:39.621Z,27.00
2022-07-31T23:01:42.589Z,27.10
2022-07-31T23:06:46.839Z,27.10
2022-07-31T23:11:49.966Z,27.00
2022-07-31T23:16:53.007Z,26.90
2022-07-31T23:21:57.311Z,26.70
2022-07-31T23:27:00.268Z,26.60
2022-07-31T23:32:05.240Z,26.40
2022-07-31T23:37:11.614Z,26.30
2022-07-31T23:42:31.922Z,26.50
2022-07-31T23:47:45.434Z,26.10
2022-07-31T23:52:50.662Z,26.30
2022-07-31T23:57:53.534Z,26.30
